Raleigh, North Carolina
Current Conditions -  °F | °C
As of 11:51 AM on Friday 24 Oct 2014 (Local Time) from KRDU Reporting Station
Scattered Clouds Scattered Clouds  
Wind Chill: 63°   Ceiling: Unl
Heat Index: 63°   Visibility: 10mi
Dew Point: 44°   Wind: 0mph
Humidity: 50%   Direction: NA
Pressure: 30.05"   Gusts: NA
Location:  35.79°N, 78.64°W
Report Text: KRDU 241551Z 00000KT 10SM FEW180 SCT250 17/07 A3005 RMK AO2 SLP175 T01720067
Loading
Personal Weather Stations






























Interactive Weather Map New forecast layout! Learn more

10-Day Weather Forecast

Advertisements
Track Severe Weather on mobile